首页
METAR-TAF:

METAR-TAF

机场 :

Greenwood County Airport

Greenwood, 南卡罗来纳州, 美国

纬度: 34-14-50N, 经度: 082-09-17W, 海拔: 192米

当前天气观测

该预报发布于9分钟前的07:18 UTC
风速10节,风向
温度 16°C
湿度 94%
气压 1006 hPa
能見度: 9.7公里
多云层高于1200英尺
多云层高于3500英尺
阴天层高于9000英尺
小雨, 轻雾

METAR: KGRD 240718Z AUTO 19010KT 6SM -RA BR BKN012 BKN035 OVC090 16/15 A2970 RMK AO2 CIG 007V022 P0002 T01560150

时间: 02:27 (07:27 UTC)


TAF: 丢失

超过4000个机场的气象观测和天气预报(METAR&TAF报告)。

可查询的气象台以黄色和红色小点在地图上表示。

将鼠标移到小点上方,可查看气象台名称。

然后点击查看天气观测和预报。

如需切换地图:点击带黑十字的绿色按钮放大地图;点击带横线的绿色按钮缩小地图;或者点击绿色箭头查看邻近地区的地图。


METAR-TAF: